VRG874 SBGL-SBEG
Flight info
| Callsign | VRG874 |
|---|---|
| Flight time | N/A |
| Altitude | 32000 |
| Route | EDNAM UM409 ESMAR DCT IRUMO |
| Aircraft | B721/M-SDFGHRWY/C |
Departure
| Time | N/A |
|---|---|
| Airport | Rio Galeão – Tom Jobim International Airport (SBGL) |
Arrival
| Time | 2026-04-15 22:00 |
|---|---|
| Airport | Eduardo Gomes International Airport (SBEG) |
| Time | Latitude | Longitude | Altitude | Speed | Heading |
|---|---|---|---|---|---|
| 2026-04-15 20:34 | -10.72157 | -52.94742 | 31840 ft | 517 kts | 322° |
| 2026-04-15 20:34 | -10.66504 | -52.99277 | 31838 ft | 517 kts | 322° |
| 2026-04-15 20:35 | -10.60855 | -53.03807 | 31969 ft | 514 kts | 322° |
| 2026-04-15 20:35 | -10.58056 | -53.06051 | 32232 ft | 509 kts | 322° |
| 2026-04-15 20:35 | -10.55283 | -53.08274 | 32490 ft | 505 kts | 321° |
| 2026-04-15 20:35 | -10.52532 | -53.10478 | 32751 ft | 501 kts | 321° |
| 2026-04-15 20:36 | -10.49834 | -53.12640 | 33011 ft | 498 kts | 321° |
| 2026-04-15 20:36 | -10.47117 | -53.14816 | 33270 ft | 494 kts | 321° |
| 2026-04-15 20:36 | -10.44429 | -53.16968 | 33540 ft | 491 kts | 321° |
| 2026-04-15 20:36 | -10.41746 | -53.19116 | 33802 ft | 489 kts | 321° |
| 2026-04-15 20:37 | -10.39070 | -53.21258 | 33836 ft | 492 kts | 321° |
| 2026-04-15 20:37 | -10.34582 | -53.24850 | 33836 ft | 497 kts | 321° |
| 2026-04-15 20:38 | -10.29108 | -53.29227 | 33848 ft | 502 kts | 321° |
| 2026-04-15 20:38 | -10.22703 | -53.34348 | 33846 ft | 506 kts | 321° |
| 2026-04-15 20:39 | -10.18081 | -53.38040 | 33850 ft | 509 kts | 321° |
| 2026-04-15 20:39 | -10.12492 | -53.42506 | 33844 ft | 510 kts | 321° |
| 2026-04-15 20:40 | -10.06915 | -53.46957 | 33846 ft | 510 kts | 321° |
| 2026-04-15 20:40 | -10.01335 | -53.51410 | 33843 ft | 511 kts | 321° |
| 2026-04-15 20:41 | -9.95743 | -53.55871 | 33845 ft | 511 kts | 321° |
| 2026-04-15 20:41 | -9.90147 | -53.60332 | 33847 ft | 511 kts | 321° |
| 2026-04-15 20:42 | -9.84585 | -53.64765 | 33846 ft | 511 kts | 321° |
| 2026-04-15 20:42 | -9.78984 | -53.69226 | 33842 ft | 511 kts | 321° |
| 2026-04-15 20:43 | -9.73383 | -53.73686 | 33840 ft | 512 kts | 321° |
| 2026-04-15 20:43 | -9.67778 | -53.78147 | 33843 ft | 512 kts | 321° |
| 2026-04-15 20:44 | -9.62182 | -53.82599 | 33842 ft | 512 kts | 321° |
| 2026-04-15 20:44 | -9.56603 | -53.87035 | 33840 ft | 512 kts | 321° |
| 2026-04-15 20:45 | -9.51004 | -53.91485 | 33839 ft | 512 kts | 321° |
| 2026-04-15 20:45 | -9.45394 | -53.95942 | 33838 ft | 512 kts | 321° |
| 2026-04-15 20:46 | -9.39783 | -54.00399 | 33841 ft | 512 kts | 321° |
| 2026-04-15 20:46 | -9.34179 | -54.04847 | 33837 ft | 512 kts | 321° |
| 2026-04-15 20:47 | -9.28564 | -54.09302 | 33837 ft | 512 kts | 321° |
| 2026-04-15 20:47 | -9.22985 | -54.13727 | 33836 ft | 512 kts | 321° |
| 2026-04-15 20:48 | -9.17361 | -54.18186 | 33842 ft | 513 kts | 321° |
| 2026-04-15 20:48 | -9.11746 | -54.22636 | 33842 ft | 513 kts | 321° |
| 2026-04-15 20:49 | -9.06115 | -54.27097 | 33838 ft | 513 kts | 321° |
| 2026-04-15 20:49 | -9.00489 | -54.31551 | 33842 ft | 514 kts | 321° |
| 2026-04-15 20:50 | -8.94862 | -54.36006 | 33841 ft | 514 kts | 321° |
| 2026-04-15 20:50 | -8.89228 | -54.40463 | 33839 ft | 515 kts | 321° |
| 2026-04-15 20:51 | -8.83583 | -54.44929 | 33838 ft | 514 kts | 321° |
| 2026-04-15 20:51 | -8.77942 | -54.49387 | 33834 ft | 515 kts | 321° |
| 2026-04-15 20:52 | -8.72328 | -54.53825 | 33836 ft | 515 kts | 321° |
| 2026-04-15 20:52 | -8.66679 | -54.58286 | 33833 ft | 516 kts | 321° |
| 2026-04-15 20:53 | -8.61020 | -54.62756 | 33837 ft | 516 kts | 321° |
| 2026-04-15 20:53 | -8.55365 | -54.67218 | 33835 ft | 516 kts | 321° |
| 2026-04-15 20:54 | -8.49701 | -54.71689 | 33832 ft | 516 kts | 321° |
| 2026-04-15 20:54 | -8.44042 | -54.76151 | 33832 ft | 516 kts | 321° |
| 2026-04-15 20:55 | -8.38374 | -54.80620 | 33832 ft | 517 kts | 321° |
| 2026-04-15 20:55 | -8.32710 | -54.85083 | 33833 ft | 517 kts | 321° |
| 2026-04-15 20:56 | -8.27071 | -54.89527 | 33829 ft | 517 kts | 322° |
| 2026-04-15 20:56 | -8.21405 | -54.93989 | 33829 ft | 517 kts | 322° |
| 2026-04-15 20:57 | -8.15730 | -54.98456 | 33827 ft | 517 kts | 322° |
| 2026-04-15 20:57 | -8.10066 | -55.02914 | 33828 ft | 517 kts | 322° |
| 2026-04-15 20:58 | -8.04380 | -55.07386 | 33823 ft | 517 kts | 322° |
| 2026-04-15 20:58 | -7.98711 | -55.11845 | 33826 ft | 517 kts | 322° |
| 2026-04-15 20:59 | -7.93039 | -55.16303 | 33822 ft | 517 kts | 322° |
| 2026-04-15 20:59 | -7.87387 | -55.20744 | 33825 ft | 517 kts | 322° |
| 2026-04-15 21:00 | -7.81711 | -55.25203 | 33823 ft | 517 kts | 322° |
| 2026-04-15 21:00 | -7.76022 | -55.29671 | 33823 ft | 518 kts | 322° |
| 2026-04-15 21:01 | -7.70337 | -55.34133 | 33822 ft | 518 kts | 322° |
| 2026-04-15 21:01 | -7.64653 | -55.38594 | 33822 ft | 519 kts | 322° |
| 2026-04-15 21:02 | -7.58943 | -55.43072 | 33818 ft | 519 kts | 322° |
| 2026-04-15 21:02 | -7.53226 | -55.47555 | 33829 ft | 519 kts | 322° |
| 2026-04-15 21:03 | -7.47548 | -55.52006 | 33822 ft | 520 kts | 322° |
| 2026-04-15 21:03 | -7.41821 | -55.56494 | 33827 ft | 520 kts | 322° |
| 2026-04-15 21:04 | -7.36143 | -55.60941 | 33822 ft | 520 kts | 323° |
| 2026-04-15 21:04 | -7.30415 | -55.65428 | 33825 ft | 520 kts | 323° |
| 2026-04-15 21:05 | -7.24697 | -55.69904 | 33824 ft | 520 kts | 323° |
| 2026-04-15 21:05 | -7.18974 | -55.74383 | 33826 ft | 519 kts | 323° |
| 2026-04-15 21:06 | -7.13303 | -55.78819 | 33825 ft | 519 kts | 323° |
| 2026-04-15 21:06 | -7.07589 | -55.83287 | 33825 ft | 519 kts | 323° |
| 2026-04-15 21:07 | -7.01886 | -55.87747 | 33823 ft | 518 kts | 323° |
| 2026-04-15 21:07 | -6.96213 | -55.92179 | 33825 ft | 518 kts | 323° |
| 2026-04-15 21:08 | -6.90513 | -55.96633 | 33825 ft | 517 kts | 323° |
| 2026-04-15 21:08 | -6.84830 | -56.01072 | 33826 ft | 517 kts | 323° |
| 2026-04-15 21:09 | -6.79188 | -56.05477 | 33830 ft | 516 kts | 323° |
| 2026-04-15 21:09 | -6.73494 | -56.09923 | 33828 ft | 516 kts | 322° |
| 2026-04-15 21:10 | -6.67814 | -56.14355 | 33828 ft | 515 kts | 322° |
| 2026-04-15 21:10 | -6.62186 | -56.18746 | 33828 ft | 515 kts | 322° |
| 2026-04-15 21:11 | -6.56527 | -56.23158 | 33823 ft | 514 kts | 322° |
| 2026-04-15 21:11 | -6.50865 | -56.27573 | 33824 ft | 514 kts | 322° |
| 2026-04-15 21:12 | -6.45244 | -56.31954 | 33826 ft | 513 kts | 322° |
| 2026-04-15 21:12 | -6.39600 | -56.36352 | 33826 ft | 513 kts | 322° |
| 2026-04-15 21:13 | -6.33953 | -56.40751 | 33828 ft | 513 kts | 322° |
| 2026-04-15 21:13 | -6.28293 | -56.45159 | 33821 ft | 513 kts | 322° |
| 2026-04-15 21:14 | -6.22672 | -56.49535 | 33819 ft | 513 kts | 322° |
| 2026-04-15 21:14 | -6.17016 | -56.53937 | 33814 ft | 513 kts | 322° |
| 2026-04-15 21:15 | -6.11384 | -56.58319 | 33812 ft | 513 kts | 322° |
| 2026-04-15 21:15 | -6.05733 | -56.62716 | 33813 ft | 514 kts | 322° |
| 2026-04-15 21:16 | -6.00066 | -56.67122 | 33814 ft | 514 kts | 322° |
| 2026-04-15 21:16 | -5.94409 | -56.71521 | 33819 ft | 514 kts | 322° |
| 2026-04-15 21:17 | -5.88787 | -56.75890 | 33817 ft | 514 kts | 322° |
| 2026-04-15 21:17 | -5.83120 | -56.80294 | 33817 ft | 514 kts | 322° |
| 2026-04-15 21:18 | -5.77470 | -56.84713 | 33818 ft | 513 kts | 319° |
| 2026-04-15 21:18 | -5.75000 | -56.87232 | 33818 ft | 513 kts | 308° |
| 2026-04-15 21:18 | -5.72961 | -56.90166 | 33828 ft | 512 kts | 301° |
| 2026-04-15 21:19 | -5.69619 | -56.96462 | 33829 ft | 511 kts | 295° |
| 2026-04-15 21:19 | -5.66320 | -57.02815 | 33822 ft | 512 kts | 299° |
| 2026-04-15 21:20 | -5.62908 | -57.09105 | 33820 ft | 512 kts | 296° |
| 2026-04-15 21:20 | -5.59612 | -57.15450 | 33823 ft | 512 kts | 298° |
| 2026-04-15 21:21 | -5.56235 | -57.21708 | 33825 ft | 513 kts | 297° |
| 2026-04-15 21:21 | -5.52909 | -57.28057 | 33822 ft | 513 kts | 297° |
| 2026-04-15 21:22 | -5.49652 | -57.34128 | 33823 ft | 513 kts | 297° |
| 2026-04-15 21:22 | -5.46313 | -57.40454 | 33821 ft | 513 kts | 297° |
| 2026-04-15 21:23 | -5.42943 | -57.46771 | 33820 ft | 514 kts | 297° |
| 2026-04-15 21:23 | -5.39582 | -57.53112 | 33822 ft | 514 kts | 297° |
| 2026-04-15 21:24 | -5.36213 | -57.59440 | 33818 ft | 514 kts | 297° |
| 2026-04-15 21:24 | -5.32841 | -57.65786 | 33818 ft | 515 kts | 297° |
| 2026-04-15 21:25 | -5.29469 | -57.72123 | 33822 ft | 515 kts | 297° |
| 2026-04-15 21:25 | -5.26111 | -57.78434 | 33822 ft | 516 kts | 297° |
| 2026-04-15 21:26 | -5.22727 | -57.84794 | 33825 ft | 516 kts | 297° |
| 2026-04-15 21:26 | -5.19345 | -57.91146 | 33826 ft | 516 kts | 297° |
| 2026-04-15 21:27 | -5.16530 | -57.96433 | 33823 ft | 516 kts | 297° |
| 2026-04-15 21:27 | -5.13141 | -58.02793 | 33819 ft | 516 kts | 297° |
| 2026-04-15 21:28 | -5.09760 | -58.09140 | 33818 ft | 516 kts | 297° |
| 2026-04-15 21:28 | -5.06371 | -58.15497 | 33821 ft | 516 kts | 297° |
| 2026-04-15 21:29 | -5.03005 | -58.21810 | 33820 ft | 516 kts | 297° |
| 2026-04-15 21:29 | -4.99613 | -58.28172 | 33817 ft | 516 kts | 297° |
| 2026-04-15 21:30 | -4.96231 | -58.34509 | 33815 ft | 515 kts | 297° |
| 2026-04-15 21:30 | -4.92848 | -58.40852 | 33816 ft | 515 kts | 297° |
| 2026-04-15 21:31 | -4.87778 | -58.50349 | 33813 ft | 515 kts | 297° |
| 2026-04-15 21:32 | -4.82724 | -58.59814 | 33820 ft | 515 kts | 297° |
| 2026-04-15 21:32 | -4.79339 | -58.66152 | 33814 ft | 515 kts | 297° |
| 2026-04-15 21:33 | -4.75953 | -58.72488 | 33813 ft | 515 kts | 297° |
| 2026-04-15 21:33 | -4.72572 | -58.78814 | 33813 ft | 515 kts | 298° |
| 2026-04-15 21:34 | -4.69206 | -58.85110 | 33816 ft | 515 kts | 298° |
| 2026-04-15 21:34 | -4.65815 | -58.91450 | 33814 ft | 515 kts | 298° |
| 2026-04-15 21:35 | -4.62436 | -58.97768 | 33812 ft | 515 kts | 298° |
| 2026-04-15 21:35 | -4.59043 | -59.04109 | 33813 ft | 515 kts | 298° |
| 2026-04-15 21:36 | -4.55676 | -59.10400 | 33811 ft | 515 kts | 298° |
| 2026-04-15 21:36 | -4.52283 | -59.16737 | 33809 ft | 515 kts | 298° |
| 2026-04-15 21:37 | -4.48890 | -59.23076 | 33807 ft | 515 kts | 298° |
| 2026-04-15 21:37 | -4.45489 | -59.29426 | 33389 ft | 518 kts | 298° |
| 2026-04-15 21:37 | -4.43819 | -59.32543 | 32896 ft | 508 kts | 298° |
| 2026-04-15 21:38 | -4.42159 | -59.35641 | 32396 ft | 498 kts | 298° |
| 2026-04-15 21:38 | -4.40534 | -59.38673 | 31899 ft | 489 kts | 298° |
| 2026-04-15 21:38 | -4.38935 | -59.41658 | 31416 ft | 481 kts | 298° |
| 2026-04-15 21:38 | -4.37363 | -59.44591 | 30940 ft | 474 kts | 297° |
| 2026-04-15 21:39 | -4.35810 | -59.47488 | 30469 ft | 468 kts | 297° |
| 2026-04-15 21:39 | -4.34301 | -59.50303 | 30026 ft | 462 kts | 297° |
| 2026-04-15 21:39 | -4.32790 | -59.53121 | 29511 ft | 456 kts | 298° |
| 2026-04-15 21:39 | -4.31295 | -59.55910 | 28962 ft | 451 kts | 298° |
| 2026-04-15 21:40 | -4.29813 | -59.58675 | 28362 ft | 448 kts | 298° |
| 2026-04-15 21:40 | -4.28343 | -59.61415 | 27791 ft | 444 kts | 298° |
| 2026-04-15 21:40 | -4.26883 | -59.64137 | 27230 ft | 441 kts | 298° |
| 2026-04-15 21:40 | -4.25440 | -59.66827 | 26678 ft | 437 kts | 298° |
| 2026-04-15 21:41 | -4.24002 | -59.69507 | 26135 ft | 434 kts | 298° |
| 2026-04-15 21:41 | -4.22597 | -59.72126 | 25609 ft | 430 kts | 298° |
| 2026-04-15 21:41 | -4.21181 | -59.74765 | 25088 ft | 427 kts | 298° |
| 2026-04-15 21:41 | -4.19776 | -59.77383 | 24578 ft | 424 kts | 298° |
| 2026-04-15 21:42 | -4.18381 | -59.79983 | 24073 ft | 421 kts | 298° |
| 2026-04-15 21:42 | -4.17000 | -59.82555 | 23579 ft | 418 kts | 298° |
| 2026-04-15 21:42 | -4.15627 | -59.85113 | 23031 ft | 415 kts | 298° |
| 2026-04-15 21:42 | -4.14280 | -59.87623 | 22450 ft | 412 kts | 298° |
| 2026-04-15 21:43 | -4.12922 | -59.90152 | 21878 ft | 410 kts | 298° |
| 2026-04-15 21:43 | -4.11426 | -59.92581 | 21306 ft | 407 kts | 309° |
| 2026-04-15 21:43 | -4.09463 | -59.94603 | 20750 ft | 403 kts | 321° |
| 2026-04-15 21:43 | -4.07139 | -59.96144 | 20208 ft | 400 kts | 334° |
| 2026-04-15 21:44 | -4.04582 | -59.97210 | 19687 ft | 396 kts | 341° |
| 2026-04-15 21:44 | -4.01989 | -59.98009 | 19178 ft | 393 kts | 346° |
| 2026-04-15 21:44 | -3.99341 | -59.98686 | 18670 ft | 391 kts | 346° |
| 2026-04-15 21:44 | -3.96718 | -59.99440 | 18169 ft | 390 kts | 344° |
| 2026-04-15 21:45 | -3.94132 | -60.00273 | 17601 ft | 388 kts | 343° |
| 2026-04-15 21:45 | -3.91582 | -60.01062 | 17038 ft | 386 kts | 345° |
| 2026-04-15 21:45 | -3.88999 | -60.01807 | 16468 ft | 384 kts | 345° |
| 2026-04-15 21:45 | -3.86439 | -60.02556 | 15896 ft | 383 kts | 344° |
| 2026-04-15 21:46 | -3.83878 | -60.03337 | 15330 ft | 382 kts | 344° |
| 2026-04-15 21:46 | -3.81333 | -60.04108 | 14776 ft | 380 kts | 344° |
| 2026-04-15 21:46 | -3.78794 | -60.04862 | 14228 ft | 379 kts | 345° |
| 2026-04-15 21:46 | -3.76298 | -60.05604 | 13699 ft | 377 kts | 344° |
| 2026-04-15 21:47 | -3.73792 | -60.06357 | 13107 ft | 376 kts | 344° |
| 2026-04-15 21:47 | -3.71288 | -60.07109 | 12506 ft | 374 kts | 344° |
| 2026-04-15 21:47 | -3.68801 | -60.07852 | 11933 ft | 372 kts | 344° |
| 2026-04-15 21:47 | -3.66322 | -60.08593 | 11366 ft | 370 kts | 345° |
| 2026-04-15 21:48 | -3.63843 | -60.09335 | 10792 ft | 369 kts | 345° |
| 2026-04-15 21:48 | -3.61423 | -60.10060 | 10247 ft | 367 kts | 345° |
| 2026-04-15 21:48 | -3.58967 | -60.10795 | 9703 ft | 366 kts | 345° |
| 2026-04-15 21:48 | -3.56530 | -60.11524 | 9102 ft | 364 kts | 345° |
| 2026-04-15 21:49 | -3.54110 | -60.12247 | 8531 ft | 362 kts | 345° |
| 2026-04-15 21:49 | -3.51706 | -60.12966 | 8003 ft | 359 kts | 345° |
| 2026-04-15 21:49 | -3.49317 | -60.13681 | 7472 ft | 356 kts | 345° |
| 2026-04-15 21:49 | -3.46974 | -60.14382 | 6962 ft | 354 kts | 345° |
| 2026-04-15 21:50 | -3.44619 | -60.15086 | 6452 ft | 352 kts | 345° |
| 2026-04-15 21:50 | -3.42292 | -60.15782 | 5934 ft | 345 kts | 345° |
| 2026-04-15 21:50 | -3.40026 | -60.16460 | 5400 ft | 334 kts | 345° |
| 2026-04-15 21:50 | -3.37831 | -60.17117 | 4859 ft | 324 kts | 345° |
| 2026-04-15 21:51 | -3.35695 | -60.17755 | 4318 ft | 316 kts | 345° |
| 2026-04-15 21:51 | -3.33636 | -60.18370 | 3781 ft | 309 kts | 345° |
| 2026-04-15 21:51 | -3.31588 | -60.18983 | 3255 ft | 304 kts | 345° |
| 2026-04-15 21:51 | -3.29568 | -60.19586 | 2806 ft | 298 kts | 345° |
| 2026-04-15 21:52 | -3.27647 | -60.20161 | 2792 ft | 278 kts | 345° |
| 2026-04-15 21:52 | -3.25841 | -60.20701 | 2787 ft | 263 kts | 345° |
| 2026-04-15 21:52 | -3.24146 | -60.21181 | 2791 ft | 249 kts | 348° |
| 2026-04-15 21:52 | -3.22477 | -60.21484 | 2809 ft | 237 kts | 354° |
| 2026-04-15 21:53 | -3.20886 | -60.21700 | 2897 ft | 226 kts | 353° |
| 2026-04-15 21:53 | -3.19362 | -60.21944 | 2987 ft | 218 kts | 352° |
| 2026-04-15 21:53 | -3.17872 | -60.22200 | 2993 ft | 215 kts | 352° |
| 2026-04-15 21:53 | -3.16402 | -60.22448 | 2995 ft | 213 kts | 352° |
| 2026-04-15 21:54 | -3.14940 | -60.22689 | 2997 ft | 210 kts | 352° |
| 2026-04-15 21:54 | -3.13521 | -60.22896 | 3000 ft | 207 kts | 356° |
| 2026-04-15 21:54 | -3.12109 | -60.23094 | 2995 ft | 205 kts | 350° |
| 2026-04-15 21:54 | -3.10712 | -60.23291 | 2995 ft | 201 kts | 356° |
| 2026-04-15 21:55 | -3.09317 | -60.23450 | 2998 ft | 201 kts | 355° |
| 2026-04-15 21:55 | -3.07953 | -60.23602 | 3012 ft | 192 kts | 355° |
| 2026-04-15 21:55 | -3.06652 | -60.23744 | 3002 ft | 183 kts | 357° |
| 2026-04-15 21:55 | -3.05447 | -60.23522 | 2972 ft | 176 kts | 36° |
| 2026-04-15 21:56 | -3.04557 | -60.22749 | 3007 ft | 170 kts | 45° |
| 2026-04-15 21:56 | -3.03911 | -60.21813 | 2998 ft | 160 kts | 72° |
| 2026-04-15 21:56 | -3.03805 | -60.20725 | 2969 ft | 156 kts | 91° |
| 2026-04-15 21:56 | -3.03833 | -60.19625 | 2797 ft | 162 kts | 90° |
| 2026-04-15 21:57 | -3.03823 | -60.18478 | 2595 ft | 167 kts | 89° |
| 2026-04-15 21:57 | -3.03836 | -60.17318 | 2376 ft | 166 kts | 91° |
| 2026-04-15 21:57 | -3.03831 | -60.16168 | 2157 ft | 164 kts | 89° |
| 2026-04-15 21:57 | -3.03840 | -60.15037 | 1949 ft | 160 kts | 91° |
| 2026-04-15 21:58 | -3.03836 | -60.13946 | 1743 ft | 157 kts | 89° |
| 2026-04-15 21:58 | -3.03844 | -60.12882 | 1556 ft | 148 kts | 91° |
| 2026-04-15 21:58 | -3.03840 | -60.11876 | 1360 ft | 141 kts | 89° |
| 2026-04-15 21:58 | -3.03850 | -60.10915 | 1181 ft | 136 kts | 90° |
| 2026-04-15 21:59 | -3.03840 | -60.09969 | 1013 ft | 136 kts | 89° |
| 2026-04-15 21:59 | -3.03837 | -60.09018 | 836 ft | 137 kts | 90° |
| 2026-04-15 21:59 | -3.03853 | -60.08073 | 659 ft | 138 kts | 88° |
| 2026-04-15 21:59 | -3.03856 | -60.07108 | 514 ft | 139 kts | 88° |
| 2026-04-15 22:00 | -3.03852 | -60.06138 | 333 ft | 138 kts | 89° |
| 2026-04-15 22:00 | -3.03858 | -60.05212 | 271 ft | 125 kts | 88° |
| 2026-04-15 22:00 | -3.03858 | -60.04519 | 273 ft | 74 kts | 91° |
| 2026-04-15 22:00 | -3.03860 | -60.04088 | 273 ft | 49 kts | 91° |
| 2026-04-15 22:01 | -3.03861 | -60.03842 | 272 ft | 19 kts | 89° |
| 2026-04-15 22:01 | -3.03801 | -60.03769 | 272 ft | 15 kts | 5° |
| 2026-04-15 22:01 | -3.03699 | -60.03810 | 272 ft | 18 kts | 302° |
| 2026-04-15 22:01 | -3.03658 | -60.03938 | 272 ft | 19 kts | 286° |
| 2026-04-15 22:02 | -3.03630 | -60.04043 | 272 ft | 13 kts | 285° |
| 2026-04-15 22:02 | -3.03602 | -60.04141 | 272 ft | 14 kts | 285° |
| 2026-04-15 22:02 | -3.03564 | -60.04243 | 272 ft | 18 kts | 298° |
| 2026-04-15 22:02 | -3.03474 | -60.04342 | 272 ft | 21 kts | 326° |
| 2026-04-15 22:03 | -3.03373 | -60.04382 | 272 ft | 9 kts | 344° |
| 2026-04-15 22:03 | -3.03336 | -60.04431 | 272 ft | 11 kts | 262° |
| 2026-04-15 22:03 | -3.03346 | -60.04487 | 272 ft | 3 kts | 260° |
| 2026-04-15 22:03 | -3.03349 | -60.04518 | 272 ft | 5 kts | 290° |
| 2026-04-15 22:04 | -3.03320 | -60.04535 | 272 ft | 6 kts | 357° |
| 2026-04-15 22:04 | -3.03284 | -60.04538 | 272 ft | 0 kts | 355° |
| 2026-04-15 22:04 | -3.03279 | -60.04539 | 272 ft | 2 kts | 354° |
| 2026-04-15 22:04 | -3.03276 | -60.04539 | 272 ft | 0 kts | 354° |